Time;durP1;ratioP1;P1;durP2;ratioP2;P2;SDS_P1;SDS_P2;PMS_P1;PMS_P2;Temp;Humidity;BMP_temperature;BMP_pressure;BME280_temperature;BME280_humidity;BME280_pressure;Samples;Min_cycle;Max_cycle;Signal;HPM_P1;HPM_P2
2022/03/13 00:00:27;;;;;;;2.47;2.17;;;10.30;80.60;;;;;;5016732;28;20521;-79
2022/03/13 00:02:55;;;;;;;5.47;2.03;;;10.20;80.40;;;;;;5036415;28;20033;-79
2022/03/13 00:05:21;;;;;;;3.20;2.22;;;10.20;80.70;;;;;;5038722;28;20085;-79
2022/03/13 00:07:48;;;;;;;2.20;1.77;;;10.20;80.80;;;;;;5038751;28;20477;-79
2022/03/13 00:10:19;;;;;;;3.90;1.85;;;10.10;81.10;;;;;;5027548;28;20025;-79
2022/03/13 00:12:47;;;;;;;3.03;1.75;;;10.10;81.10;;;;;;5034104;28;20033;-79
2022/03/13 00:15:14;;;;;;;2.35;2.08;;;10.10;81.10;;;;;;5018835;28;20358;-79
2022/03/13 00:17:41;;;;;;;4.30;2.35;;;10.10;81.40;;;;;;5033923;28;20516;-79
2022/03/13 00:20:08;;;;;;;4.57;2.08;;;10.10;81.50;;;;;;5018703;28;20045;-79
2022/03/13 00:22:35;;;;;;;5.72;2.65;;;10.10;81.40;;;;;;5018437;28;20053;-79
2022/03/13 00:25:05;;;;;;;2.40;1.88;;;10.10;81.30;;;;;;5056544;28;20112;-80
2022/03/13 00:27:31;;;;;;;5.25;2.15;;;10.00;81.60;;;;;;5058323;28;20378;-79
2022/03/13 00:29:58;;;;;;;3.08;1.90;;;10.00;81.70;;;;;;5058435;28;20056;-79
2022/03/13 00:32:23;;;;;;;4.18;2.00;;;10.00;81.80;;;;;;5032353;28;20103;-79
2022/03/13 00:34:49;;;;;;;5.07;2.38;;;10.00;82.00;;;;;;5018546;28;20524;-79
2022/03/13 00:37:17;;;;;;;4.25;2.10;;;10.00;82.10;;;;;;5020571;28;20025;-79
2022/03/13 00:39:44;;;;;;;3.10;1.95;;;10.10;81.70;;;;;;5020427;28;20034;-79
2022/03/13 00:42:12;;;;;;;4.95;1.92;;;10.00;81.70;;;;;;5018329;28;20030;-79
2022/03/13 00:44:38;;;;;;;3.40;2.20;;;10.00;82.10;;;;;;5016971;28;20097;-79
2022/03/13 00:47:05;;;;;;;3.03;2.13;;;10.10;81.90;;;;;;5018032;28;20037;-79
2022/03/13 00:49:32;;;;;;;2.47;2.03;;;10.00;82.40;;;;;;5018311;28;20018;-79
2022/03/13 00:52:03;;;;;;;3.47;2.17;;;10.00;82.70;;;;;;5017931;28;20053;-79
2022/03/13 00:54:29;;;;;;;4.03;2.42;;;10.00;83.00;;;;;;5018175;28;20033;-79
2022/03/13 00:56:55;;;;;;;2.60;1.73;;;10.10;82.90;;;;;;5017933;28;20026;-79
2022/03/13 00:59:21;;;;;;;2.60;1.83;;;10.00;82.70;;;;;;5016555;28;20033;-79
2022/03/13 01:01:47;;;;;;;3.75;1.70;;;10.10;82.60;;;;;;5027211;28;20033;-79
2022/03/13 01:04:14;;;;;;;3.22;2.03;;;9.90;82.90;;;;;;5037154;28;20025;-79
2022/03/13 01:06:41;;;;;;;3.22;2.22;;;9.90;83.40;;;;;;5017997;28;20022;-79
2022/03/13 01:09:07;;;;;;;2.92;1.55;;;10.00;83.70;;;;;;5017554;28;20058;-79
2022/03/13 01:11:33;;;;;;;2.15;1.70;;;10.00;83.20;;;;;;5017518;28;20026;-80
2022/03/13 01:13:59;;;;;;;2.10;1.83;;;9.90;83.80;;;;;;5017764;28;20022;-79
2022/03/13 01:16:35;;;;;;;3.08;1.95;;;9.90;83.80;;;;;;5017746;28;20482;-79
2022/03/13 01:19:01;;;;;;;3.42;1.83;;;9.90;84.00;;;;;;5016173;28;20032;-79
2022/03/13 01:21:28;;;;;;;4.10;1.77;;;9.80;83.90;;;;;;5017743;28;20437;-79
2022/03/13 01:23:59;;;;;;;2.38;1.60;;;9.90;83.80;;;;;;5023974;28;20036;-79
2022/03/13 01:26:25;;;;;;;3.45;1.45;;;9.90;83.30;;;;;;5017549;28;20025;-79
2022/03/13 01:28:59;;;;;;;4.07;1.63;;;9.90;83.20;;;;;;5017287;28;20033;-79
2022/03/13 01:31:30;;;;;;;3.17;2.03;;;10.00;82.60;;;;;;5017519;28;20022;-79
2022/03/13 01:33:57;;;;;;;2.60;1.60;;;10.10;82.00;;;;;;5016404;28;20029;-79
2022/03/13 01:36:23;;;;;;;2.38;1.08;;;10.00;80.80;;;;;;5017021;28;20496;-79
2022/03/13 01:38:53;;;;;;;3.97;1.50;;;10.00;80.00;;;;;;5017393;28;20026;-79
2022/03/13 01:41:19;;;;;;;2.70;1.33;;;10.00;79.90;;;;;;5017078;28;20030;-79
2022/03/13 01:43:45;;;;;;;3.85;1.40;;;10.10;79.60;;;;;;5017071;28;20120;-79
2022/03/13 01:46:11;;;;;;;3.33;1.23;;;10.10;79.20;;;;;;5017367;28;20452;-79
2022/03/13 01:49:02;;;;;;;3.33;1.42;;;10.00;79.00;;;;;;5016984;28;20033;-79
2022/03/13 01:51:28;;;;;;;3.30;1.20;;;10.00;79.30;;;;;;5016685;28;20046;-79
2022/03/13 01:54:01;;;;;;;2.05;1.23;;;10.00;79.40;;;;;;5031901;28;20034;-79
2022/03/13 01:56:30;;;;;;;3.25;1.15;;;10.00;79.60;;;;;;5016723;28;20049;-79
2022/03/13 01:58:56;;;;;;;4.63;1.45;;;9.90;79.70;;;;;;5017072;28;20485;-79
2022/03/13 02:01:24;;;;;;;1.30;1.08;;;9.90;80.00;;;;;;5032322;28;20516;-79
2022/03/13 02:03:50;;;;;;;2.50;1.23;;;9.90;79.90;;;;;;5016614;28;20493;-79
2022/03/13 02:06:17;;;;;;;2.38;1.23;;;9.90;80.00;;;;;;5016588;28;20060;-78
2022/03/13 02:08:47;;;;;;;3.15;1.35;;;9.90;80.00;;;;;;5016738;28;20030;-79
2022/03/13 02:11:22;;;;;;;2.03;1.30;;;9.80;80.10;;;;;;5016594;28;20041;-79
2022/03/13 02:13:50;;;;;;;3.45;1.30;;;9.70;79.90;;;;;;5016370;28;20089;-80
2022/03/13 02:16:18;;;;;;;5.05;2.03;;;9.70;79.60;;;;;;5016556;28;20473;-79
2022/03/13 02:18:48;;;;;;;3.47;1.10;;;9.60;79.00;;;;;;5030582;28;20021;-79
2022/03/13 02:21:16;;;;;;;1.25;0.90;;;9.60;78.50;;;;;;5016062;28;20061;-79
2022/03/13 02:23:42;;;;;;;4.00;1.05;;;9.50;78.40;;;;;;5032490;28;20056;-79
2022/03/13 02:26:08;;;;;;;3.80;0.98;;;9.50;78.20;;;;;;5025753;28;20034;-79
2022/03/13 02:28:36;;;;;;;6.00;1.20;;;9.40;78.20;;;;;;5016085;28;20366;-79
2022/03/13 02:31:04;;;;;;;3.78;1.00;;;9.40;78.00;;;;;;5016301;28;20037;-79
2022/03/13 02:33:31;;;;;;;3.15;1.10;;;9.50;78.10;;;;;;5016467;28;20024;-78
2022/03/13 02:35:59;;;;;;;3.63;0.90;;;9.60;77.90;;;;;;5016388;28;20493;-79
2022/03/13 02:38:28;;;;;;;1.17;0.73;;;9.50;77.70;;;;;;5016048;28;20029;-79
2022/03/13 02:40:54;;;;;;;3.67;1.30;;;9.50;78.10;;;;;;5016148;28;20036;-79
2022/03/13 02:43:20;;;;;;;1.80;0.98;;;9.40;78.20;;;;;;5016096;28;20033;-79
2022/03/13 02:45:46;;;;;;;2.92;0.98;;;9.40;78.50;;;;;;5014812;28;20034;-79
2022/03/13 02:48:12;;;;;;;5.70;1.05;;;9.30;78.90;;;;;;5015834;28;20164;-79
2022/03/13 02:50:39;;;;;;;4.82;1.30;;;9.30;79.10;;;;;;5015995;28;20018;-79
2022/03/13 02:53:06;;;;;;;5.00;1.05;;;9.20;79.40;;;;;;5015803;28;20053;-78
2022/03/13 02:55:32;;;;;;;4.47;1.10;;;9.20;79.50;;;;;;5015913;28;20026;-79
2022/03/13 02:57:58;;;;;;;4.88;1.23;;;9.20;79.90;;;;;;5015787;28;20025;-79
2022/03/13 03:00:44;;;;;;;2.55;0.98;;;9.30;79.80;;;;;;5016158;28;20041;-79
2022/03/13 03:03:12;;;;;;;3.58;1.23;;;9.20;80.20;;;;;;5015880;28;20026;-78
2022/03/13 03:05:38;;;;;;;1.83;1.35;;;9.20;80.70;;;;;;5015357;28;20061;-79
2022/03/13 03:08:05;;;;;;;4.38;1.10;;;9.20;80.70;;;;;;5015709;28;20033;-78
2022/03/13 03:10:32;;;;;;;1.27;0.95;;;9.30;80.60;;;;;;5015456;28;20034;-78
2022/03/13 03:12:58;;;;;;;3.20;1.02;;;9.30;80.60;;;;;;5015622;28;20026;-78
2022/03/13 03:15:26;;;;;;;2.67;1.20;;;9.30;80.70;;;;;;5014363;28;20029;-78
2022/03/13 03:17:52;;;;;;;2.33;1.10;;;9.30;80.90;;;;;;5015778;28;20274;-78
2022/03/13 03:20:19;;;;;;;5.70;1.15;;;9.30;80.90;;;;;;5015467;28;20033;-79
2022/03/13 03:22:47;;;;;;;4.93;1.27;;;9.30;81.00;;;;;;5016132;28;20496;-79
2022/03/13 03:25:13;;;;;;;3.63;1.48;;;9.30;81.20;;;;;;5030496;28;20109;-78
2022/03/13 03:27:42;;;;;;;7.55;2.17;;;9.40;81.40;;;;;;5030449;28;20030;-79
2022/03/13 03:30:09;;;;;;;2.95;1.40;;;9.40;81.00;;;;;;5035286;28;20029;-79
2022/03/13 03:32:35;;;;;;;5.00;1.38;;;9.50;80.90;;;;;;5028083;28;20022;-78
2022/03/13 03:35:00;;;;;;;1.90;1.00;;;9.50;81.10;;;;;;5015475;28;20025;-78
2022/03/13 03:37:26;;;;;;;4.13;1.60;;;9.50;81.00;;;;;;5015282;28;20038;-78
2022/03/13 03:39:52;;;;;;;5.68;1.55;;;9.50;81.10;;;;;;5015151;28;20397;-78
2022/03/13 03:42:18;;;;;;;4.30;1.30;;;9.50;81.30;;;;;;5015119;28;20022;-78
2022/03/13 03:44:43;;;;;;;2.63;1.33;;;9.50;81.50;;;;;;5015156;28;20029;-79
2022/03/13 03:47:09;;;;;;;3.38;1.40;;;9.60;81.50;;;;;;5015214;28;20037;-79
2022/03/13 03:49:35;;;;;;;3.38;1.40;;;9.60;81.80;;;;;;5014030;28;20045;-78
2022/03/13 03:52:01;;;;;;;8.18;2.05;;;9.50;81.90;;;;;;5015229;28;20046;-78
2022/03/13 03:54:26;;;;;;;8.38;1.60;;;9.60;82.00;;;;;;5015066;28;20076;-78
2022/03/13 03:56:52;;;;;;;4.18;1.10;;;9.60;82.10;;;;;;5014967;28;20033;-79
2022/03/13 03:59:20;;;;;;;2.67;1.65;;;9.50;82.20;;;;;;5013691;28;20076;-79
2022/03/13 04:01:45;;;;;;;17.00;2.38;;;9.60;82.50;;;;;;5015111;28;20029;-79
2022/03/13 04:04:11;;;;;;;3.17;1.67;;;9.60;82.50;;;;;;5014907;28;20026;-78
2022/03/13 04:06:38;;;;;;;4.55;1.75;;;9.70;82.40;;;;;;5015072;28;20110;-78
2022/03/13 04:09:08;;;;;;;4.75;1.63;;;9.60;82.50;;;;;;5015125;28;20061;-79
2022/03/13 04:11:35;;;;;;;8.77;1.77;;;9.70;82.60;;;;;;5014775;28;20529;-78
2022/03/13 04:14:01;;;;;;;5.30;2.00;;;9.70;82.70;;;;;;5015230;28;20058;-79
2022/03/13 04:16:27;;;;;;;8.75;1.77;;;9.60;83.10;;;;;;5014949;28;20057;-79
2022/03/13 04:18:54;;;;;;;6.53;1.60;;;9.70;83.10;;;;;;5014566;28;20560;-78
2022/03/13 04:21:22;;;;;;;9.88;1.90;;;9.70;83.20;;;;;;5015056;28;20085;-78
2022/03/13 04:23:48;;;;;;;4.75;1.98;;;9.60;83.70;;;;;;5032704;28;20033;-79
2022/03/13 04:26:15;;;;;;;5.40;1.48;;;9.70;83.50;;;;;;5018009;28;20034;-79
2022/03/13 04:28:41;;;;;;;4.25;1.70;;;9.70;83.10;;;;;;5014827;28;20375;-79
2022/03/13 04:31:08;;;;;;;5.00;1.80;;;9.70;83.40;;;;;;5014970;28;20014;-78
2022/03/13 04:33:36;;;;;;;7.57;2.40;;;9.70;83.40;;;;;;5014725;28;20026;-79
2022/03/13 04:36:11;;;;;;;8.13;2.22;;;9.60;83.90;;;;;;5029749;28;20040;-78
2022/03/13 04:38:37;;;;;;;7.60;2.50;;;9.70;83.80;;;;;;5014766;28;20033;-78
2022/03/13 04:41:02;;;;;;;4.78;2.00;;;9.70;83.60;;;;;;5014678;28;20465;-78
2022/03/13 04:43:28;;;;;;;4.38;2.20;;;9.60;83.60;;;;;;5013452;28;20037;-78
2022/03/13 04:45:54;;;;;;;3.83;1.98;;;9.70;83.70;;;;;;5016981;28;20060;-78
2022/03/13 04:48:20;;;;;;;7.10;2.05;;;9.70;84.00;;;;;;5018037;28;20026;-79
2022/03/13 04:50:47;;;;;;;6.50;2.17;;;9.60;84.20;;;;;;5018417;28;20020;-79
2022/03/13 04:53:13;;;;;;;5.13;2.10;;;9.60;84.40;;;;;;5018024;28;20148;-78
2022/03/13 04:55:39;;;;;;;5.43;2.30;;;9.70;84.20;;;;;;5017736;28;20022;-78
2022/03/13 04:58:05;;;;;;;9.48;3.45;;;9.60;84.50;;;;;;5016528;28;20095;-78
2022/03/13 05:00:31;;;;;;;4.63;2.35;;;9.70;84.50;;;;;;5018132;28;20030;-78
2022/03/13 05:02:57;;;;;;;6.90;2.78;;;9.60;84.60;;;;;;5018046;28;20045;-78
2022/03/13 05:05:23;;;;;;;3.28;2.10;;;9.70;84.60;;;;;;5017848;28;20053;-78
2022/03/13 05:07:49;;;;;;;11.40;2.40;;;9.60;84.70;;;;;;5017738;28;20029;-78
2022/03/13 05:10:18;;;;;;;5.05;2.17;;;9.70;84.50;;;;;;5017525;28;20032;-79
2022/03/13 05:12:44;;;;;;;4.97;2.10;;;9.70;84.70;;;;;;5033082;28;20026;-79
2022/03/13 05:15:10;;;;;;;5.13;2.10;;;9.70;84.70;;;;;;5017228;28;20026;-78
2022/03/13 05:17:36;;;;;;;6.00;2.20;;;9.70;84.60;;;;;;5017751;28;20066;-79
2022/03/13 05:20:02;;;;;;;8.77;2.55;;;9.70;84.60;;;;;;5017750;28;20104;-79
2022/03/13 05:22:28;;;;;;;5.45;2.70;;;9.70;84.50;;;;;;5017750;28;20030;-79
2022/03/13 05:24:54;;;;;;;6.72;3.50;;;9.70;84.60;;;;;;5053259;28;20042;-79
2022/03/13 05:27:20;;;;;;;7.40;2.85;;;9.70;84.70;;;;;;5057202;28;20048;-79
2022/03/13 05:29:46;;;;;;;5.25;2.85;;;9.70;84.90;;;;;;5018996;28;20026;-78
2022/03/13 05:32:11;;;;;;;5.18;2.25;;;9.70;84.80;;;;;;5017112;28;20037;-79
2022/03/13 05:34:38;;;;;;;7.50;2.40;;;9.70;85.20;;;;;;5017380;28;20073;-78
2022/03/13 05:37:04;;;;;;;3.83;2.20;;;9.70;85.20;;;;;;5016068;28;20073;-78
2022/03/13 05:39:29;;;;;;;5.28;2.78;;;9.70;84.80;;;;;;5017424;28;20018;-79
2022/03/13 05:41:56;;;;;;;5.32;2.45;;;9.70;85.10;;;;;;5017195;28;20026;-79
2022/03/13 05:44:23;;;;;;;6.00;2.33;;;9.70;85.00;;;;;;5017187;28;20022;-79
2022/03/13 05:46:48;;;;;;;5.32;3.10;;;9.70;85.20;;;;;;5017157;28;20029;-78
2022/03/13 05:49:14;;;;;;;6.25;2.60;;;9.70;85.10;;;;;;5016794;28;20030;-78
2022/03/13 05:51:40;;;;;;;4.65;2.13;;;9.70;85.30;;;;;;5016848;28;20042;-78
2022/03/13 05:54:06;;;;;;;10.23;3.00;;;9.70;85.40;;;;;;5016962;28;20060;-79
2022/03/13 05:56:32;;;;;;;5.57;2.72;;;9.70;85.40;;;;;;5016779;28;20076;-79
2022/03/13 05:58:58;;;;;;;7.40;2.60;;;9.80;85.10;;;;;;5016919;28;20026;-79
2022/03/13 06:01:24;;;;;;;9.35;2.90;;;9.80;85.10;;;;;;5016958;28;20493;-78
2022/03/13 06:03:49;;;;;;;4.32;2.78;;;9.70;85.30;;;;;;5027967;28;20481;-79
2022/03/13 06:06:15;;;;;;;3.92;2.03;;;9.80;84.90;;;;;;5020615;28;20029;-79
2022/03/13 06:08:41;;;;;;;6.22;2.33;;;9.80;85.00;;;;;;5030334;28;20102;-79
2022/03/13 06:11:08;;;;;;;5.35;2.65;;;9.80;84.80;;;;;;5019589;28;20021;-79
2022/03/13 06:13:34;;;;;;;7.85;2.60;;;9.80;85.20;;;;;;5031885;28;20022;-79
2022/03/13 06:16:00;;;;;;;6.95;2.60;;;9.80;85.20;;;;;;5016765;28;20085;-79
2022/03/13 06:18:31;;;;;;;3.08;2.13;;;9.70;85.30;;;;;;5016229;28;20465;-79
2022/03/13 06:20:57;;;;;;;4.90;2.10;;;9.80;85.20;;;;;;5030087;28;20116;-79
2022/03/13 06:23:23;;;;;;;4.22;2.95;;;9.90;84.90;;;;;;5034101;28;20416;-79
2022/03/13 06:25:49;;;;;;;8.43;2.60;;;9.80;84.90;;;;;;5022912;28;20114;-79
2022/03/13 06:28:16;;;;;;;5.47;2.25;;;9.90;85.10;;;;;;5016275;28;20037;-79
2022/03/13 06:30:42;;;;;;;14.90;2.80;;;9.80;85.40;;;;;;5016110;28;20026;-79
2022/03/13 06:33:08;;;;;;;4.68;2.30;;;9.70;85.90;;;;;;5016174;28;20054;-79
2022/03/13 06:35:34;;;;;;;7.88;3.22;;;9.70;85.40;;;;;;5016274;28;20509;-78
2022/03/13 06:37:59;;;;;;;2.95;1.70;;;9.60;85.30;;;;;;5029410;28;20101;-79
2022/03/13 06:40:26;;;;;;;5.03;1.88;;;9.60;85.00;;;;;;5034334;28;20021;-79
2022/03/13 06:42:53;;;;;;;9.07;1.77;;;9.60;84.70;;;;;;5021706;28;20038;-79
2022/03/13 06:45:19;;;;;;;6.75;1.98;;;9.60;84.60;;;;;;5015956;28;20465;-79
2022/03/13 06:47:47;;;;;;;4.13;1.35;;;9.60;84.40;;;;;;5021094;28;20037;-79
2022/03/13 06:50:15;;;;;;;6.55;1.33;;;9.60;83.60;;;;;;5026374;28;20030;-78
2022/03/13 06:52:41;;;;;;;6.88;1.42;;;9.50;82.60;;;;;;5024059;28;20038;-79
2022/03/13 06:55:07;;;;;;;7.75;1.38;;;9.30;82.10;;;;;;5025004;28;20063;-78
2022/03/13 06:57:33;;;;;;;5.80;1.10;;;9.30;82.10;;;;;;5025925;28;20504;-79
2022/03/13 07:00:00;;;;;;;9.20;1.38;;;9.30;82.00;;;;;;5022932;28;20018;-79
2022/03/13 07:02:26;;;;;;;3.78;1.17;;;9.30;82.30;;;;;;5025240;28;20025;-79
2022/03/13 07:04:52;;;;;;;3.97;1.20;;;9.30;81.90;;;;;;5024734;28;20057;-79
2022/03/13 07:07:18;;;;;;;4.28;1.17;;;9.20;81.20;;;;;;5023393;28;20034;-79
2022/03/13 07:09:44;;;;;;;4.15;1.38;;;9.30;82.00;;;;;;5025681;28;20484;-79
2022/03/13 07:12:11;;;;;;;7.63;1.35;;;9.30;82.30;;;;;;5023162;28;20080;-89
2022/03/13 07:14:38;;;;;;;7.80;1.58;;;9.30;81.90;;;;;;5027933;28;20473;-88
2022/03/13 07:17:04;;;;;;;4.20;1.52;;;9.30;81.90;;;;;;5022880;28;20018;-81
2022/03/13 07:19:30;;;;;;;6.43;1.25;;;9.30;81.70;;;;;;5022986;28;20088;-86
2022/03/13 07:21:58;;;;;;;3.30;1.10;;;9.30;81.50;;;;;;5026752;28;20025;-87
2022/03/13 07:24:24;;;;;;;7.43;1.08;;;9.40;81.90;;;;;;5034810;28;20026;-85
2022/03/13 07:26:50;;;;;;;3.65;1.10;;;9.50;81.70;;;;;;5022658;28;20034;-90
2022/03/13 07:29:16;;;;;;;9.55;2.30;;;9.50;81.90;;;;;;5032622;28;20159;-83
2022/03/13 07:31:42;;;;;;;6.07;2.03;;;9.60;81.90;;;;;;5030421;28;20110;-83
2022/03/13 07:34:07;;;;;;;4.10;1.40;;;9.60;81.50;;;;;;5014217;28;20080;-81
2022/03/13 07:36:34;;;;;;;4.63;1.50;;;9.50;81.00;;;;;;5013850;28;20029;-86
2022/03/13 07:39:01;;;;;;;12.07;2.00;;;9.60;81.70;;;;;;5016618;28;20034;-81
2022/03/13 07:41:26;;;;;;;8.30;1.30;;;9.60;81.10;;;;;;5023393;28;20029;-83
2022/03/13 07:43:52;;;;;;;4.47;1.10;;;9.60;80.80;;;;;;5023494;28;20033;-78
2022/03/13 07:46:18;;;;;;;7.60;2.22;;;9.60;81.40;;;;;;5026141;28;20113;-78
2022/03/13 07:48:44;;;;;;;6.68;1.38;;;9.60;81.30;;;;;;5027600;28;20034;-83
2022/03/13 07:51:14;;;;;;;8.38;2.10;;;9.60;81.40;;;;;;5014762;28;20022;-81
2022/03/13 07:53:39;;;;;;;4.10;1.83;;;9.60;81.40;;;;;;5028575;28;20018;-81
2022/03/13 07:56:05;;;;;;;5.55;1.63;;;9.60;81.80;;;;;;5024143;28;20257;-81
2022/03/13 07:58:32;;;;;;;7.22;2.15;;;9.70;81.90;;;;;;5025678;28;20386;-82
2022/03/13 08:00:58;;;;;;;6.55;1.65;;;9.70;81.90;;;;;;5026402;28;20026;-79
2022/03/13 08:03:35;;;;;;;6.55;1.40;;;9.70;81.40;;;;;;5018993;28;20045;-83
2022/03/13 08:06:01;;;;;;;5.07;1.13;;;9.70;81.70;;;;;;5027660;28;20021;-82
2022/03/13 08:08:27;;;;;;;5.55;1.30;;;9.70;81.90;;;;;;5024479;28;20041;-83
2022/03/13 08:10:53;;;;;;;9.25;1.90;;;9.80;82.20;;;;;;5024717;28;20699;-82
2022/03/13 08:13:19;;;;;;;3.67;1.42;;;9.80;82.40;;;;;;5025833;28;20049;-83
2022/03/13 08:15:44;;;;;;;6.25;1.65;;;9.90;82.20;;;;;;5029170;28;20040;-82
2022/03/13 08:18:12;;;;;;;7.07;1.20;;;9.90;81.90;;;;;;5034761;28;20083;-83
2022/03/13 08:20:38;;;;;;;2.53;1.83;;;10.10;81.90;;;;;;5027474;28;20029;-83
2022/03/13 08:23:04;;;;;;;7.63;1.63;;;10.10;81.90;;;;;;5031221;28;20050;-83
2022/03/13 08:25:30;;;;;;;6.85;2.05;;;10.00;82.20;;;;;;5028068;28;20473;-83
2022/03/13 08:27:56;;;;;;;6.32;1.58;;;10.10;82.40;;;;;;5035309;28;20038;-81
2022/03/13 08:30:22;;;;;;;9.80;1.88;;;10.10;81.90;;;;;;5036715;28;20032;-81
2022/03/13 08:35:39;;;;;;;9.52;1.77;;;10.10;82.40;;;;;;5047031;28;21812;-79
2022/03/13 08:38:05;;;;;;;6.72;1.60;;;9.90;83.20;;;;;;5049492;28;20056;-78
2022/03/13 08:40:30;;;;;;;5.65;1.48;;;10.00;83.10;;;;;;5050082;28;20034;-79
2022/03/13 08:42:56;;;;;;;3.50;1.30;;;10.10;83.00;;;;;;5046612;28;20037;-78
2022/03/13 08:45:24;;;;;;;6.90;1.30;;;10.20;82.40;;;;;;5047376;28;20025;-77
2022/03/13 08:47:50;;;;;;;4.57;1.63;;;10.20;82.70;;;;;;5045019;28;20053;-79
2022/03/13 08:50:16;;;;;;;5.80;1.77;;;10.30;82.10;;;;;;5052716;28;20041;-83
2022/03/13 08:52:42;;;;;;;5.32;1.48;;;10.30;82.30;;;;;;5046139;28;20037;-83
2022/03/13 08:55:13;;;;;;;8.52;1.55;;;10.30;82.50;;;;;;5050188;28;20021;-83
2022/03/13 08:57:41;;;;;;;9.57;2.13;;;10.30;82.20;;;;;;5047289;28;20033;-84
2022/03/13 09:00:10;;;;;;;6.25;1.52;;;10.40;82.20;;;;;;5046304;28;20017;-83
2022/03/13 09:02:37;;;;;;;3.70;1.70;;;10.50;82.30;;;;;;5046067;28;20049;-83
2022/03/13 09:05:03;;;;;;;6.60;1.63;;;10.60;81.90;;;;;;5030838;28;20609;-83
2022/03/13 09:07:29;;;;;;;4.63;1.50;;;10.60;82.10;;;;;;5046744;28;20026;-82
2022/03/13 09:09:55;;;;;;;6.47;2.38;;;10.60;81.90;;;;;;5032289;28;20036;-84
2022/03/13 09:12:20;;;;;;;3.92;1.80;;;10.50;81.90;;;;;;5042770;28;20060;-84
2022/03/13 09:14:46;;;;;;;9.57;2.60;;;10.50;82.10;;;;;;5050579;28;20101;-85
2022/03/13 09:17:12;;;;;;;2.78;1.40;;;10.60;82.30;;;;;;5048354;28;20103;-85
2022/03/13 09:19:38;;;;;;;8.93;1.77;;;10.60;82.50;;;;;;5047902;28;20061;-86
2022/03/13 09:22:04;;;;;;;3.63;1.67;;;10.60;82.50;;;;;;5049909;28;20061;-85
2022/03/13 09:24:30;;;;;;;3.53;1.50;;;10.70;82.20;;;;;;5052410;28;20039;-85
2022/03/13 09:26:56;;;;;;;4.53;1.30;;;10.70;81.90;;;;;;5048578;28;20033;-85
2022/03/13 09:29:21;;;;;;;10.43;1.67;;;10.70;81.80;;;;;;5046762;28;20456;-83
2022/03/13 09:31:47;;;;;;;6.45;1.60;;;10.70;81.60;;;;;;5047951;28;20030;-85
2022/03/13 09:34:13;;;;;;;4.18;1.20;;;10.70;81.20;;;;;;5050016;28;20530;-86
2022/03/13 09:36:42;;;;;;;4.53;1.70;;;10.80;81.00;;;;;;5048950;28;20043;-87
2022/03/13 09:39:08;;;;;;;4.88;1.50;;;10.80;81.30;;;;;;5041688;28;20417;-85
2022/03/13 09:41:35;;;;;;;7.85;1.88;;;10.90;80.80;;;;;;5041936;28;20079;-86
2022/03/13 09:44:01;;;;;;;5.35;1.50;;;10.90;80.20;;;;;;5050691;28;20183;-85
2022/03/13 09:46:26;;;;;;;9.88;1.80;;;10.90;80.40;;;;;;5034935;28;20074;-85
2022/03/13 09:48:53;;;;;;;4.00;1.30;;;11.00;80.10;;;;;;5030261;28;20034;-86
2022/03/13 09:51:19;;;;;;;3.28;1.30;;;11.20;79.80;;;;;;5041867;28;20029;-85
2022/03/13 09:53:46;;;;;;;4.80;1.50;;;11.20;79.10;;;;;;5051855;28;20059;-85
2022/03/13 09:56:12;;;;;;;6.63;1.60;;;11.30;79.50;;;;;;5027300;28;20605;-87
2022/03/13 09:58:38;;;;;;;4.85;1.63;;;11.30;78.90;;;;;;5035294;28;20033;-88
2022/03/13 10:01:07;;;;;;;9.00;2.13;;;11.30;79.40;;;;;;5034111;28;20093;-85
2022/03/13 10:03:34;;;;;;;8.07;1.80;;;11.20;79.10;;;;;;5033545;28;20067;-84
2022/03/13 10:05:59;;;;;;;4.38;1.55;;;11.20;79.90;;;;;;5034621;28;20356;-85
2022/03/13 10:08:31;;;;;;;7.68;2.17;;;11.30;79.50;;;;;;5037223;28;20029;-79
2022/03/13 10:10:57;;;;;;;4.20;1.55;;;11.50;79.70;;;;;;5034568;28;20072;-79
2022/03/13 10:13:33;;;;;;;4.57;1.83;;;11.60;79.20;;;;;;5036508;28;20049;-78
2022/03/13 10:15:59;;;;;;;6.07;1.75;;;11.70;79.00;;;;;;5033833;28;20032;-86
2022/03/13 10:18:26;;;;;;;8.77;1.92;;;11.80;78.20;;;;;;5030682;28;20030;-86
2022/03/13 10:20:54;;;;;;;9.13;2.67;;;11.90;78.10;;;;;;5036006;28;20097;-87
2022/03/13 10:23:22;;;;;;;7.68;1.50;;;12.00;77.40;;;;;;5032697;28;20033;-85
2022/03/13 10:25:53;;;;;;;6.25;1.88;;;12.10;77.70;;;;;;5036556;28;20021;-87
2022/03/13 10:28:23;;;;;;;8.93;1.90;;;12.10;77.20;;;;;;5035441;28;20039;-87
2022/03/13 10:30:58;;;;;;;7.00;2.10;;;12.30;77.20;;;;;;5031237;28;20044;-84
2022/03/13 10:33:25;;;;;;;8.77;2.03;;;12.30;77.60;;;;;;5031757;28;20122;-86
2022/03/13 10:36:05;;;;;;;7.82;1.90;;;12.50;76.90;;;;;;5030790;28;20473;-84
2022/03/13 10:38:34;;;;;;;7.03;1.60;;;12.50;75.80;;;;;;5034444;28;20030;-86
2022/03/13 10:41:00;;;;;;;8.82;2.40;;;12.70;75.50;;;;;;5033876;28;20752;-85
2022/03/13 10:43:29;;;;;;;5.97;1.60;;;12.70;75.00;;;;;;5034347;28;20025;-86
2022/03/13 10:45:56;;;;;;;11.23;1.83;;;12.90;73.90;;;;;;5032463;28;20034;-76
2022/03/13 10:48:26;;;;;;;11.73;2.08;;;13.20;72.90;;;;;;5029160;28;20036;-76
2022/03/13 10:50:53;;;;;;;6.25;1.98;;;13.20;71.90;;;;;;5036573;28;20025;-76
2022/03/13 10:53:20;;;;;;;14.43;2.03;;;13.30;72.20;;;;;;5026761;28;20030;-78
2022/03/13 10:56:06;;;;;;;12.20;1.65;;;13.50;72.00;;;;;;5043096;28;20025;-76
2022/03/13 10:58:35;;;;;;;10.35;1.92;;;13.40;71.30;;;;;;5023977;28;20353;-76
2022/03/13 11:01:09;;;;;;;9.00;1.98;;;13.50;71.90;;;;;;5036083;28;20036;-79
2022/03/13 11:03:37;;;;;;;10.60;2.33;;;13.50;70.10;;;;;;5031129;28;20025;-75
2022/03/13 11:06:03;;;;;;;13.80;2.83;;;13.50;70.40;;;;;;5028900;28;20060;-76
2022/03/13 11:08:29;;;;;;;14.27;2.47;;;13.40;68.60;;;;;;5027502;28;20044;-75
2022/03/13 11:10:57;;;;;;;13.43;2.30;;;13.70;68.40;;;;;;5026526;28;20025;-76
2022/03/13 11:13:26;;;;;;;8.02;1.50;;;13.80;67.00;;;;;;5035104;28;20021;-76
2022/03/13 11:15:56;;;;;;;9.38;1.85;;;13.80;66.70;;;;;;5027587;28;20040;-76
2022/03/13 11:18:32;;;;;;;9.05;2.50;;;13.70;66.00;;;;;;5029102;28;20083;-76
2022/03/13 11:20:59;;;;;;;6.78;1.50;;;13.70;64.00;;;;;;5034700;28;20018;-75
2022/03/13 11:23:25;;;;;;;12.27;2.28;;;13.80;62.80;;;;;;5024316;28;20392;-76
2022/03/13 11:25:55;;;;;;;8.73;1.35;;;14.00;63.20;;;;;;5034022;28;20033;-76
2022/03/13 11:28:22;;;;;;;6.35;1.88;;;14.20;62.00;;;;;;5031250;28;20033;-76
2022/03/13 11:30:49;;;;;;;10.23;1.77;;;14.10;61.30;;;;;;5027139;28;20115;-77
2022/03/13 11:33:45;;;;;;;11.15;2.33;;;14.30;61.00;;;;;;5031871;28;20041;-75
2022/03/13 11:36:31;;;;;;;9.68;2.05;;;14.30;60.50;;;;;;5022231;28;20068;-76
2022/03/13 11:39:04;;;;;;;7.35;1.52;;;14.40;59.40;;;;;;5025201;28;20028;-73
2022/03/13 11:41:39;;;;;;;10.77;1.83;;;14.30;58.10;;;;;;5033205;28;20022;-73
2022/03/13 11:44:19;;;;;;;8.55;1.77;;;14.60;59.60;;;;;;5025709;28;20035;-72
2022/03/13 11:46:52;;;;;;;8.77;2.28;;;14.70;58.20;;;;;;5022279;28;20025;-73
2022/03/13 11:49:33;;;;;;;10.02;1.70;;;14.70;57.50;;;;;;5032941;28;20026;-76
2022/03/13 11:52:16;;;;;;;11.57;1.92;;;14.90;57.90;;;;;;5050557;28;20398;-79
2022/03/13 11:54:45;;;;;;;11.80;3.03;;;15.00;58.60;;;;;;5025498;28;20114;-80
2022/03/13 11:57:15;;;;;;;11.60;1.70;;;14.80;57.10;;;;;;5034987;28;20029;-77
2022/03/13 11:59:42;;;;;;;7.32;1.90;;;14.90;56.00;;;;;;5028814;28;20060;-78
2022/03/13 12:02:12;;;;;;;7.10;1.85;;;14.80;54.80;;;;;;5030418;28;20037;-78
2022/03/13 12:04:38;;;;;;;11.40;2.20;;;14.80;55.20;;;;;;5037315;28;20061;-76
2022/03/13 12:07:23;;;;;;;8.75;1.85;;;14.90;55.30;;;;;;5051198;28;20029;-76
2022/03/13 12:09:49;;;;;;;14.60;3.72;;;14.80;54.60;;;;;;5033552;28;20025;-76
2022/03/13 12:12:17;;;;;;;12.60;4.03;;;14.90;55.10;;;;;;5025496;28;20022;-81
2022/03/13 12:15:01;;;;;;;12.00;2.42;;;15.10;54.00;;;;;;5029502;28;20025;-79
2022/03/13 12:17:43;;;;;;;11.55;2.78;;;14.90;53.80;;;;;;5033010;28;20025;-79
2022/03/13 12:20:19;;;;;;;10.43;2.65;;;15.00;52.70;;;;;;5037190;28;20063;-79
2022/03/13 12:22:53;;;;;;;7.10;1.70;;;15.10;52.90;;;;;;5053364;28;21127;-82
2022/03/13 12:25:22;;;;;;;12.48;2.60;;;15.20;52.80;;;;;;5041502;28;20117;-81
2022/03/13 12:27:47;;;;;;;10.02;1.90;;;15.40;53.10;;;;;;5031256;28;20406;-81
2022/03/13 12:30:15;;;;;;;8.38;1.90;;;15.40;52.00;;;;;;5028983;28;20026;-81
2022/03/13 12:32:41;;;;;;;5.80;1.15;;;15.30;51.30;;;;;;5027924;28;20028;-82
2022/03/13 12:35:07;;;;;;;7.90;2.03;;;15.30;52.30;;;;;;5028579;28;20054;-82
2022/03/13 12:37:33;;;;;;;7.68;1.58;;;15.50;51.60;;;;;;5024559;28;20188;-81
2022/03/13 12:40:02;;;;;;;5.60;2.03;;;15.60;50.80;;;;;;5029726;28;20041;-83
2022/03/13 12:42:30;;;;;;;6.90;1.65;;;15.30;50.00;;;;;;5028485;28;20033;-81
2022/03/13 12:45:03;;;;;;;9.23;1.90;;;15.30;49.20;;;;;;5032937;28;20029;-80
2022/03/13 12:47:29;;;;;;;9.25;2.15;;;15.50;50.80;;;;;;5044675;28;20036;-83
2022/03/13 12:49:59;;;;;;;7.45;2.00;;;15.50;50.50;;;;;;5026919;28;20021;-76
2022/03/13 12:52:26;;;;;;;4.38;1.63;;;15.40;49.00;;;;;;5034860;28;20018;-81
2022/03/13 12:55:01;;;;;;;11.15;1.65;;;15.30;48.90;;;;;;5026506;28;20033;-77